• Join FlightAware (Why Join?)
  • Login
  • US Flag 
 
10:58AM EST


 

Airport Tracker/Info


-or-


 

Live Flight TrackerFlight Track Log ✈ MPE9136 ✈ 18-Apr-2013 ✈ CYQY - CYYT

Flight Track Log - Related Links

Times and Time Zones

All times are in EDT time to prevent confusion due to time zone crossing. See the MPE9136 flight status page for this flight to view local times or setup timezone preferences in your user account.

Time Position Orientation Groundspeed Altitude Reporting Facility
EDT Latitude Longitude Course Direction KTS MPH feet Rate Location/Type
01:31AM 46.1500 -60.0167 360° North 10 12 200  Level Moncton Center
01:32AM 46.1667 -60.0167 360° North 70 81 600 1,800 Climbing Moncton Center
01:33AM 46.1833 -59.9667 64° Northeast 170 196 3,900 3,120 Climbing Moncton Center
01:34AM 46.2167 -59.8667 64° Northeast 230 265 6,900 3,420 Climbing Moncton Center
01:35AM 46.2500 -59.7500 68° East 280 322 10,800 2,940 Climbing Moncton Center
01:36AM 46.2833 -59.6333 68° East 340 391 12,800 2,520 Climbing Moncton Center
01:37AM 46.3000 -59.4833 81° East 390 449 15,900 3,060 Climbing Moncton Center
01:38AM 46.3333 -59.3000 75° East 430 495 19,000 3,060 Climbing Moncton Center
01:39AM 46.3667 -59.1333 74° East 450 518 22,100 3,000 Climbing Moncton Center
01:40AM 46.4167 -58.9500 68° East 470 541 25,000 2,400 Climbing Moncton Center
01:41AM 46.4500 -58.7667 75° East 480 552 27,000 2,520 Climbing Moncton Center
01:42AM 46.5000 -58.5667 70° East 500 575 30,100 2,940 Climbing Moncton Center
01:43AM 46.5167 -58.3833 82° East 480 552 32,900 1,620 Climbing Moncton Center
01:44AM 46.5500 -58.2500 70° East 470 541 33,000  Climbing Gander Center
01:45AM 46.5833 -58.0500 76° East 470 541 33,000  Level Gander Center
01:45AM 46.6000 -58.0167 54° Northeast 480 552 33,000  Level Moncton Center
01:46AM 46.6333 -57.8333 75° East 480 552 33,000  Level Moncton Center
01:47AM 46.6667 -57.6667 74° East 470 541 33,000  Level Moncton Center
01:48AM 46.7000 -57.5167 72° East 480 552 33,000  Level Gander Center
01:49AM 46.7167 -57.3167 83° East 480 552 33,000  Level Gander Center
01:49AM 46.7333 -57.2833 54° Northeast 480 552 33,000  Level Moncton Center
01:51AM 46.8000 -56.9333 74° East 480 552 33,000  Level Gander Center
01:52AM 46.8333 -56.7667 74° East 490 564 33,000  Level Gander Center
01:52AM 46.8333 -56.7000 90° East 480 552 33,000  Level Moncton Center
01:53AM 46.8667 -56.5000 76° East 480 552 33,000  Level Moncton Center
01:54AM 46.9167 -56.3333 66° East 480 552 33,000  Level Moncton Center
01:55AM 46.9500 -56.1333 76° East 480 552 33,000  Level Moncton Center
01:56AM 46.9833 -55.9500 75° East 500 575 33,000  Level Moncton Center
01:57AM 47.0000 -55.8000 81° East 500 575 33,000  Level Gander Center
01:58AM 47.0333 -55.6000 76° East 500 575 33,000  Level Gander Center
01:59AM 47.0667 -55.4000 76° East 500 575 33,000  Level Gander Center
02:00AM 47.1000 -55.2000 76° East 500 575 33,000  Level Gander Center
02:01AM 47.1333 -55.0000 76° East 500 575 33,000  Level Gander Center
02:01AM 47.1333 -54.9333 90° East 500 575 33,000  Level Moncton Center
02:02AM 47.1500 -54.8000 80° East 500 575 33,000 -60 Level Gander Center
02:03AM 47.2000 -54.6167 68° East 500 575 32,900 -540 Descending Gander Center
02:04AM 47.2333 -54.3833 78° East 500 575 32,000 -1,920 Descending Gander Center
02:05AM 47.2500 -54.1833 83° East 510 587 29,100 -2,100 Descending Gander Center
02:06AM 47.2833 -53.9833 76° East 510 587 27,900 -2,520 Descending Gander Center
02:07AM 47.3333 -53.7833 70° East 520 598 24,100 -2,760 Descending Gander Center
02:08AM 47.3500 -53.6000 82° East 500 575 22,400 -2,100 Descending Gander Center
02:08AM 47.3667 -53.5333 70° East 480 552 21,500 -3,720 Descending Moncton Center
02:09AM 47.3833 -53.4000 79° East 440 506 18,700 -3,840 Descending Gander Center
02:10AM 47.4000 -53.2500 81° East 420 483 14,900 -3,780 Descending Gander Center
02:11AM 47.4333 -53.0833 73° East 400 460 11,200 -2,400 Descending Gander Center
02:12AM 47.4500 -52.9500 79° East 370 426 10,200 -1,200 Descending Gander Center
02:13AM 47.4833 -52.8167 70° East 320 368 8,800 -1,500 Descending Gander Center
02:14AM 47.5000 -52.7000 78° East 300 345 7,200 -1,680 Descending Gander Center
02:15AM 47.5000 -52.5833 90° East 300 345 5,500 -1,380 Descending Gander Center
02:16AM 47.5333 -52.4667 67° East 280 322 4,500 -720 Descending Gander Center
02:17AM 47.5667 -52.3833 59° Northeast 230 265 4,100 -600 Descending Gander Center
02:18AM 47.6167 -52.4000 347° North 200 230 3,400 -300 Descending Gander Center
02:19AM 47.6167 -52.4500 270° West 170 196 3,500 -360 Climbing Gander Center
02:20AM 47.6167 -52.5167 270° West 160 184 2,700 -780 Descending Gander Center
02:21AM 47.6000 -52.5667 244° Southwest 150 173 2,000 -720 Descending Gander Center
02:22AM 47.6167 -52.6167 296° West 120 138 1,300 -720 Descending Gander Center
02:23AM 47.6167 -52.6667 270° West 120 138 600 -420 Descending Gander Center
02:24AM 47.6000 -52.7000 233° Southwest 90 104 500 -60 Descending Gander Center
02:25AM 47.6000 -52.7000 233° Southwest 30 35 500  Level Gander Center